Time;durP1;ratioP1;P1;durP2;ratioP2;P2;SDS_P1;SDS_P2;PMS_P1;PMS_P2;Temp;Humidity;BMP_temperature;BMP_pressure;BME280_temperature;BME280_humidity;BME280_pressure;Samples;Min_cycle;Max_cycle;Signal;HPM_P1;HPM_P2
2023/09/11 00:01:15;;;;;;;0.00;0.00;;;;;;;19.41;100.00;101220.47;5114517;28;20035;-47
2023/09/11 00:03:41;;;;;;;0.00;0.00;;;;;;;19.36;100.00;101228.31;5114797;28;20027;-46
2023/09/11 00:06:06;;;;;;;0.10;0.10;;;;;;;19.33;100.00;101223.09;5113847;28;20024;-51
2023/09/11 00:08:32;;;;;;;0.00;0.00;;;;;;;19.33;100.00;101223.09;5114458;28;20024;-47
2023/09/11 00:10:58;;;;;;;0.00;0.00;;;;;;;19.26;100.00;101216.13;5114654;28;20023;-50
2023/09/11 00:13:24;;;;;;;0.00;0.00;;;;;;;19.24;100.00;101212.66;5113225;28;20370;-50
2023/09/11 00:15:50;;;;;;;0.00;0.00;;;;;;;19.26;100.00;101216.13;5114444;28;20068;-47
2023/09/11 00:18:15;;;;;;;0.00;0.00;;;;;;;19.25;100.00;101212.66;5113935;28;20389;-49
2023/09/11 00:20:40;;;;;;;0.00;0.00;;;;;;;19.24;100.00;101213.50;5113760;28;20055;-48
2023/09/11 00:23:08;;;;;;;0.10;0.10;;;;;;;19.21;100.00;101210.03;5114349;28;20027;-47
2023/09/11 00:25:36;;;;;;;0.00;0.00;;;;;;;19.21;100.00;101212.63;5113919;28;20020;-51
2023/09/11 00:28:02;;;;;;;0.05;0.05;;;;;;;19.16;100.00;101209.16;5113676;28;20051;-47
2023/09/11 00:30:27;;;;;;;0.10;0.10;;;;;;;19.17;100.00;101205.69;5113985;28;20035;-48
2023/09/11 00:32:52;;;;;;;0.00;0.00;;;;;;;19.12;100.00;101204.81;5113610;28;20129;-49
2023/09/11 00:35:18;;;;;;;0.00;0.00;;;;;;;19.07;100.00;101212.66;5113197;28;20020;-49
2023/09/11 00:37:43;;;;;;;0.00;0.00;;;;;;;19.07;100.00;101204.81;5114128;28;20047;-51
2023/09/11 00:40:09;;;;;;;0.00;0.00;;;;;;;19.03;100.00;101208.28;5113621;28;20374;-50
2023/09/11 00:42:34;;;;;;;0.00;0.00;;;;;;;18.97;100.00;101203.94;5113094;28;20062;-49
2023/09/11 00:45:00;;;;;;;0.10;0.10;;;;;;;18.93;100.00;101207.41;5113924;28;20012;-48
2023/09/11 00:47:25;;;;;;;0.00;0.00;;;;;;;18.96;100.00;101199.56;5113194;28;20115;-49
2023/09/11 00:49:54;;;;;;;0.00;0.00;;;;;;;18.89;100.00;101210.88;5113278;28;20026;-51
2023/09/11 00:52:19;;;;;;;0.00;0.00;;;;;;;18.89;100.00;101206.53;5113552;28;20043;-50
2023/09/11 00:54:45;;;;;;;0.00;0.00;;;;;;;18.94;100.00;101198.72;5113310;28;20023;-49
2023/09/11 00:57:10;;;;;;;0.00;0.00;;;;;;;18.93;100.00;101207.41;5113482;28;20040;-49
2023/09/11 00:59:36;;;;;;;0.00;0.00;;;;;;;18.90;100.00;101195.22;5113349;28;20073;-50
2023/09/11 01:02:02;;;;;;;0.00;0.00;;;;;;;18.89;100.00;101206.53;5112772;28;20046;-51
2023/09/11 01:04:28;;;;;;;0.00;0.00;;;;;;;18.89;100.00;101189.97;5113182;28;20135;-51
2023/09/11 01:06:53;;;;;;;0.00;0.00;;;;;;;18.87;100.00;101196.94;5113725;28;20170;-50
2023/09/11 01:09:19;;;;;;;0.00;0.00;;;;;;;18.92;100.00;101190.00;5112365;28;20541;-49
2023/09/11 01:11:44;;;;;;;0.00;0.00;;;;;;;18.92;100.00;101190.00;5113696;28;20035;-50
2023/09/11 01:14:09;;;;;;;0.00;0.00;;;;;;;18.86;100.00;101196.06;5113333;28;20035;-51
2023/09/11 01:16:55;;;;;;;0.00;0.00;;;;;;;18.82;100.00;101193.44;5112532;28;20042;-49
2023/09/11 01:19:36;;;;;;;0.00;0.00;;;;;;;18.82;100.00;101198.66;5113344;28;20035;-49
2023/09/11 01:22:39;;;;;;;0.00;0.00;;;;;;;18.79;100.00;101199.53;5113052;28;20374;-49
2023/09/11 01:25:14;;;;;;;0.00;0.00;;;;;;;18.80;100.00;101197.78;5113172;28;20030;-49
2023/09/11 01:28:17;;;;;;;0.00;0.00;;;;;;;18.76;100.00;101199.53;5113548;28;20050;-49
2023/09/11 01:30:43;;;;;;;0.00;0.00;;;;;;;18.75;100.00;101193.44;5112756;28;20031;-50
2023/09/11 01:33:09;;;;;;;0.10;0.10;;;;;;;18.74;100.00;101196.91;5113129;28;20059;-50
2023/09/11 01:35:34;;;;;;;0.00;0.00;;;;;;;18.68;100.00;101191.69;5116621;28;20051;-50
2023/09/11 01:38:00;;;;;;;0.00;0.00;;;;;;;18.70;100.00;101195.16;5116977;28;20442;-50
2023/09/11 01:40:32;;;;;;;0.05;0.05;;;;;;;18.67;100.00;101192.56;5117286;28;20028;-51
2023/09/11 01:43:02;;;;;;;0.05;0.05;;;;;;;18.62;100.00;101191.69;5117357;28;20401;-51
2023/09/11 01:45:30;;;;;;;0.00;0.00;;;;;;;18.56;100.00;101181.22;5116504;28;20024;-49
2023/09/11 01:47:56;;;;;;;0.00;0.00;;;;;;;18.57;100.00;101193.41;5117185;28;20035;-48
2023/09/11 01:50:23;;;;;;;0.00;0.00;;;;;;;18.49;100.00;101192.50;5116710;28;20474;-50
2023/09/11 01:52:49;;;;;;;0.08;0.08;;;;;;;18.53;100.00;101189.06;5116690;28;20028;-47
2023/09/11 01:55:16;;;;;;;0.00;0.00;;;;;;;18.53;100.00;101187.31;5116973;28;20110;-50
2023/09/11 01:57:41;;;;;;;0.03;0.03;;;;;;;18.52;100.00;101185.56;5117079;28;20387;-50
2023/09/11 02:00:08;;;;;;;0.10;0.10;;;;;;;18.51;100.00;101185.56;5116460;28;20476;-48
2023/09/11 02:02:33;;;;;;;0.10;0.10;;;;;;;18.47;100.00;101178.59;5116675;28;20386;-50
2023/09/11 02:04:59;;;;;;;0.10;0.10;;;;;;;18.44;100.00;101179.47;5116292;28;20523;-49
2023/09/11 02:07:24;;;;;;;0.00;0.00;;;;;;;18.39;100.00;101178.59;5116587;28;20111;-47
2023/09/11 02:09:49;;;;;;;0.00;0.00;;;;;;;18.37;100.00;101169.88;5117069;28;20019;-47
2023/09/11 02:12:15;;;;;;;0.10;0.10;;;;;;;18.36;100.00;101179.44;5115752;28;20379;-48
2023/09/11 02:14:40;;;;;;;0.03;0.03;;;;;;;18.31;100.00;101175.94;5116877;28;20054;-51
2023/09/11 02:17:05;;;;;;;0.00;0.00;;;;;;;18.32;100.00;101175.09;5116584;28;20047;-51
2023/09/11 02:19:32;;;;;;;0.00;0.00;;;;;;;18.27;100.00;101176.81;5115835;28;20023;-51
2023/09/11 02:21:57;;;;;;;0.00;0.00;;;;;;;18.24;100.00;101171.56;5116833;28;20023;-49
2023/09/11 02:24:22;;;;;;;0.10;0.10;;;;;;;18.18;100.00;101163.72;5116245;28;20526;-50
2023/09/11 02:26:48;;;;;;;0.00;0.00;;;;;;;18.18;100.00;101163.72;5116110;28;20445;-49
2023/09/11 02:29:13;;;;;;;0.10;0.10;;;;;;;18.17;100.00;101156.78;5116190;28;20011;-50
2023/09/11 02:31:38;;;;;;;0.00;0.00;;;;;;;18.17;100.00;101154.19;5116061;28;20032;-49
2023/09/11 02:34:04;;;;;;;0.10;0.10;;;;;;;18.11;100.00;101157.63;5115818;28;20016;-47
2023/09/11 02:36:29;;;;;;;0.10;0.10;;;;;;;18.10;100.00;101158.47;5116145;28;20026;-50
2023/09/11 02:38:54;;;;;;;0.10;0.10;;;;;;;18.07;100.00;101159.34;5116216;28;20026;-50
2023/09/11 02:41:20;;;;;;;0.00;0.00;;;;;;;18.06;100.00;101155.00;5115895;27;20024;-50
2023/09/11 02:43:45;;;;;;;0.00;0.00;;;;;;;18.00;100.00;101154.97;5116500;28;20363;-50
2023/09/11 02:46:10;;;;;;;0.00;0.00;;;;;;;18.00;100.00;101162.81;5114562;28;20478;-52
2023/09/11 02:48:42;;;;;;;0.00;0.00;;;;;;;17.95;100.00;101169.75;5115269;28;20485;-50
2023/09/11 02:51:08;;;;;;;0.00;0.00;;;;;;;18.01;100.00;101167.16;5116247;28;20023;-50
2023/09/11 02:53:33;;;;;;;0.00;0.00;;;;;;;17.97;100.00;101165.38;5115569;28;20096;-51
2023/09/11 02:55:58;;;;;;;0.00;0.00;;;;;;;17.91;100.00;101154.91;5115297;28;20130;-50
2023/09/11 02:58:23;;;;;;;0.00;0.00;;;;;;;17.88;100.00;101161.00;5115885;28;20020;-50
2023/09/11 03:00:49;;;;;;;0.00;0.00;;;;;;;17.84;100.00;101158.34;5115603;28;20028;-49
2023/09/11 03:03:14;;;;;;;0.10;0.10;;;;;;;17.85;100.00;101158.34;5114928;28;20052;-50
2023/09/11 03:05:39;;;;;;;0.00;0.00;;;;;;;17.81;100.00;101151.38;5115931;28;20019;-47
2023/09/11 03:08:06;;;;;;;0.10;0.10;;;;;;;17.80;100.00;101151.38;5115433;28;20019;-50
2023/09/11 03:10:31;;;;;;;0.10;0.10;;;;;;;17.77;100.00;101147.03;5115560;28;20347;-50
2023/09/11 03:12:56;;;;;;;0.10;0.10;;;;;;;17.75;100.00;101148.75;5115660;28;20034;-49
2023/09/11 03:15:29;;;;;;;0.00;0.00;;;;;;;17.70;100.00;101151.34;5114405;28;20039;-50
2023/09/11 03:17:55;;;;;;;0.00;0.00;;;;;;;17.68;100.00;101141.78;5115791;28;20016;-50
2023/09/11 03:20:20;;;;;;;0.00;0.00;;;;;;;17.64;100.00;101140.88;5115412;28;20035;-48
2023/09/11 03:22:45;;;;;;;0.00;0.00;;;;;;;17.64;100.00;101132.19;5114773;28;20466;-50
2023/09/11 03:25:11;;;;;;;0.10;0.10;;;;;;;17.66;100.00;101130.47;5115507;28;20034;-50
2023/09/11 03:27:36;;;;;;;0.00;0.00;;;;;;;17.63;100.00;101131.31;5115133;28;20016;-49
2023/09/11 03:30:02;;;;;;;0.00;0.00;;;;;;;17.62;100.00;101134.78;5114723;28;20463;-50
2023/09/11 03:32:27;;;;;;;0.00;0.00;;;;;;;17.55;100.00;101125.22;5114882;28;20477;-49
2023/09/11 03:34:53;;;;;;;0.00;0.00;;;;;;;17.52;100.00;101127.78;5114972;28;20028;-49
2023/09/11 03:37:20;;;;;;;0.00;0.00;;;;;;;17.49;100.00;101125.16;5114573;28;20044;-49
2023/09/11 03:39:45;;;;;;;0.00;0.00;;;;;;;17.49;100.00;101120.81;5115340;28;20028;-50
2023/09/11 03:42:10;;;;;;;0.00;0.00;;;;;;;17.50;100.00;101121.72;5114921;28;20035;-50
2023/09/11 03:44:35;;;;;;;0.00;0.00;;;;;;;17.44;100.00;101120.81;5114250;28;20025;-49
2023/09/11 03:47:01;;;;;;;0.00;0.00;;;;;;;17.40;100.00;101110.34;5114946;28;20023;-50
2023/09/11 03:49:26;;;;;;;0.00;0.00;;;;;;;17.39;100.00;101116.41;5114709;28;20030;-51
2023/09/11 03:51:51;;;;;;;0.00;0.00;;;;;;;17.41;100.00;101115.56;5114426;28;20106;-50
2023/09/11 03:54:17;;;;;;;0.00;0.00;;;;;;;17.38;100.00;101105.13;5114550;28;20451;-50
2023/09/11 03:56:42;;;;;;;0.03;0.03;;;;;;;17.38;100.00;101107.75;5113911;28;20051;-51
2023/09/11 03:59:07;;;;;;;0.00;0.00;;;;;;;17.33;100.00;101104.25;5114089;28;20084;-49
2023/09/11 04:01:33;;;;;;;0.00;0.00;;;;;;;17.41;100.00;101096.47;5114580;28;20046;-50
2023/09/11 04:03:58;;;;;;;0.00;0.00;;;;;;;17.35;100.00;101096.44;5114600;28;20475;-50
2023/09/11 04:06:23;;;;;;;0.00;0.00;;;;;;;17.33;100.00;101092.97;5113883;28;20030;-50
2023/09/11 04:08:49;;;;;;;0.08;0.08;;;;;;;17.33;100.00;101092.97;5114899;28;20023;-49
2023/09/11 04:11:17;;;;;;;0.00;0.00;;;;;;;17.31;100.00;101094.66;5114148;28;20020;-50
2023/09/11 04:13:43;;;;;;;0.05;0.05;;;;;;;17.31;100.00;101085.09;5113711;28;20119;-48
2023/09/11 04:16:08;;;;;;;0.10;0.10;;;;;;;17.35;100.00;101086.91;5114486;28;20067;-48
2023/09/11 04:18:33;;;;;;;0.08;0.08;;;;;;;17.34;100.00;101089.47;5113478;28;20043;-50
2023/09/11 04:21:03;;;;;;;0.00;0.00;;;;;;;17.30;100.00;101087.72;5114533;28;20382;-49
2023/09/11 04:23:28;;;;;;;0.10;0.10;;;;;;;17.25;100.00;101091.16;5114192;28;20039;-50
2023/09/11 04:25:55;;;;;;;0.00;0.00;;;;;;;17.21;100.00;101089.41;5113438;28;20119;-50
2023/09/11 04:28:21;;;;;;;0.10;0.10;;;;;;;17.25;100.00;101082.50;5113919;28;20027;-50
2023/09/11 04:30:46;;;;;;;0.00;0.00;;;;;;;17.26;100.00;101081.59;5114156;28;20076;-49
2023/09/11 04:33:11;;;;;;;0.00;0.00;;;;;;;17.22;100.00;101085.06;5113360;28;20031;-46
2023/09/11 04:35:37;;;;;;;0.00;0.00;;;;;;;17.20;100.00;101079.00;5114313;28;20451;-50
2023/09/11 04:38:02;;;;;;;0.10;0.10;;;;;;;17.17;100.00;101073.75;5113933;28;20022;-50
2023/09/11 04:40:27;;;;;;;0.10;0.10;;;;;;;17.16;100.00;101070.28;5113057;28;20030;-46
2023/09/11 04:42:53;;;;;;;0.10;0.10;;;;;;;17.08;100.00;101072.84;5113894;28;20027;-49
2023/09/11 04:45:18;;;;;;;0.00;0.00;;;;;;;17.13;100.00;101079.81;5113473;28;20485;-48
2023/09/11 04:47:43;;;;;;;0.00;0.00;;;;;;;17.11;100.00;101074.59;5113415;28;20038;-50
2023/09/11 04:50:09;;;;;;;0.00;0.00;;;;;;;17.11;100.00;101085.88;5113954;28;20098;-47
2023/09/11 04:52:35;;;;;;;0.10;0.10;;;;;;;17.11;100.00;101087.63;5113050;28;20031;-50
2023/09/11 04:55:00;;;;;;;0.00;0.00;;;;;;;17.07;100.00;101086.72;5113201;28;20028;-50
2023/09/11 04:57:25;;;;;;;0.00;0.00;;;;;;;17.01;100.00;101086.66;5113318;28;20108;-46
2023/09/11 04:59:51;;;;;;;0.10;0.10;;;;;;;17.00;100.00;101089.28;5113321;28;20031;-49
2023/09/11 05:02:16;;;;;;;0.00;0.00;;;;;;;16.97;100.00;101090.13;5112970;28;20480;-49
2023/09/11 05:04:42;;;;;;;0.10;0.10;;;;;;;17.05;100.00;101080.63;5113664;28;20016;-50
2023/09/11 05:07:07;;;;;;;0.00;0.00;;;;;;;17.06;100.00;101090.19;5113425;28;20027;-45
2023/09/11 05:09:33;;;;;;;0.10;0.10;;;;;;;17.02;100.00;101093.63;5111739;28;20023;-44
2023/09/11 05:11:58;;;;;;;0.10;0.10;;;;;;;17.06;100.00;101090.19;5113248;28;20485;-45
2023/09/11 05:14:25;;;;;;;0.00;0.00;;;;;;;17.02;100.00;101096.22;5112829;28;20055;-45
2023/09/11 05:16:50;;;;;;;0.00;0.00;;;;;;;17.11;100.00;101092.81;5113084;28;20053;-49
2023/09/11 05:19:15;;;;;;;0.08;0.08;;;;;;;17.13;100.00;101090.22;5113189;28;20039;-48
2023/09/11 05:21:41;;;;;;;0.00;0.00;;;;;;;17.17;100.00;101091.97;5113297;28;20479;-51
2023/09/11 05:24:07;;;;;;;0.00;0.00;;;;;;;17.20;100.00;101092.00;5112903;28;20068;-45
2023/09/11 05:26:32;;;;;;;0.10;0.10;;;;;;;17.22;100.00;101095.47;5113334;28;20027;-45
2023/09/11 05:28:58;;;;;;;0.00;0.00;;;;;;;17.21;100.00;101096.34;5112553;28;20385;-50
2023/09/11 05:31:23;;;;;;;0.10;0.10;;;;;;;17.28;100.00;101095.53;5113134;28;20370;-50
2023/09/11 05:33:49;;;;;;;0.00;0.00;;;;;;;17.35;100.00;101096.44;5113050;28;20381;-45
2023/09/11 05:36:14;;;;;;;0.00;0.00;;;;;;;17.38;100.00;101097.31;5112264;28;20473;-44
2023/09/11 05:38:40;;;;;;;0.00;0.00;;;;;;;17.46;100.00;101099.97;5113213;28;20020;-47
2023/09/11 05:41:05;;;;;;;0.05;0.05;;;;;;;17.51;100.00;101102.59;5112905;28;20023;-46
2023/09/11 05:43:31;;;;;;;0.00;0.00;;;;;;;17.66;100.00;101100.03;5112352;28;20036;-46
2023/09/11 05:45:56;;;;;;;0.00;0.00;;;;;;;17.68;100.00;101107.91;5113443;28;20020;-48
2023/09/11 05:48:22;;;;;;;0.10;0.10;;;;;;;17.72;100.00;101115.72;5112783;28;20069;-50
2023/09/11 05:50:47;;;;;;;0.00;0.00;;;;;;;17.68;100.00;101111.34;5112822;28;20497;-49
2023/09/11 05:53:12;;;;;;;0.05;0.05;;;;;;;17.75;100.00;101118.34;5112735;28;20482;-50
2023/09/11 05:55:38;;;;;;;0.00;0.00;;;;;;;17.81;100.00;101127.06;5112760;28;20048;-49
2023/09/11 05:58:04;;;;;;;0.10;0.10;;;;;;;17.84;100.00;101121.84;5112422;28;20032;-49
2023/09/11 06:00:29;;;;;;;0.10;0.10;;;;;;;17.96;100.00;101116.72;5112880;28;20031;-50
2023/09/11 06:02:55;;;;;;;0.08;0.08;;;;;;;17.90;100.00;101119.28;5112657;28;20018;-46
2023/09/11 06:05:21;;;;;;;0.03;0.03;;;;;;;18.04;100.00;101120.22;5112143;28;20531;-46
2023/09/11 06:07:47;;;;;;;0.00;0.00;;;;;;;18.17;100.00;101128.09;5113016;28;20044;-49
2023/09/11 06:10:13;;;;;;;0.10;0.10;;;;;;;18.20;100.00;101123.72;5112376;28;20077;-50
2023/09/11 06:12:39;;;;;;;0.03;0.03;;;;;;;18.37;100.00;101125.50;5112220;28;20058;-45
2023/09/11 06:15:05;;;;;;;0.10;0.10;;;;;;;18.49;100.00;101135.09;5113071;28;20032;-50
2023/09/11 06:17:32;;;;;;;0.00;0.00;;;;;;;18.57;100.00;101125.53;5112545;28;20047;-45
2023/09/11 06:19:58;;;;;;;0.10;0.10;;;;;;;18.67;100.00;101131.63;5113134;28;20520;-46
2023/09/11 06:22:23;;;;;;;0.00;0.00;;;;;;;18.78;100.00;101129.03;5116324;28;20039;-49
2023/09/11 06:24:49;;;;;;;0.00;0.00;;;;;;;18.86;100.00;101122.94;5116280;28;20024;-49
2023/09/11 06:27:14;;;;;;;0.05;0.05;;;;;;;19.00;100.00;101130.78;5115582;27;20390;-49
2023/09/11 06:29:40;;;;;;;0.00;0.00;;;;;;;19.11;100.00;101129.91;5116675;28;20466;-46
2023/09/11 06:32:06;;;;;;;0.00;0.00;;;;;;;19.23;100.00;101135.13;5115893;28;20024;-45
2023/09/11 06:34:31;;;;;;;0.00;0.00;;;;;;;19.32;100.00;101132.50;5116043;28;20505;-47
2023/09/11 06:36:57;;;;;;;0.00;0.00;;;;;;;19.44;100.00;101130.72;5116270;28;20099;-47
2023/09/11 06:39:23;;;;;;;0.00;0.00;;;;;;;19.53;100.00;101125.47;5115629;28;20037;-45
2023/09/11 06:41:48;;;;;;;0.05;0.03;;;;;;;19.64;100.00;101139.38;5116193;28;20028;-49
2023/09/11 06:44:14;;;;;;;0.00;0.00;;;;;;;19.74;100.00;101140.19;5115937;28;20070;-47
2023/09/11 06:46:39;;;;;;;0.10;0.10;;;;;;;19.84;100.00;101136.72;5115744;28;20489;-45
2023/09/11 06:49:04;;;;;;;0.00;0.00;;;;;;;19.94;100.00;101142.78;5116124;28;20066;-50
2023/09/11 06:51:29;;;;;;;0.00;0.00;;;;;;;20.04;100.00;101143.63;5115673;28;20076;-50
2023/09/11 06:53:55;;;;;;;0.00;0.00;;;;;;;20.09;100.00;101143.56;5115452;28;20024;-49
2023/09/11 06:56:20;;;;;;;0.00;0.00;;;;;;;20.11;100.00;101142.69;5115355;28;20039;-50
2023/09/11 06:58:46;;;;;;;0.05;0.05;;;;;;;20.12;100.00;101143.59;5115919;28;20032;-50
2023/09/11 07:01:13;;;;;;;0.00;0.00;;;;;;;20.15;100.00;101147.03;5115311;28;20070;-46
2023/09/11 07:03:38;;;;;;;0.20;0.10;;;;;;;20.18;100.00;101149.66;5116118;28;20031;-47
2023/09/11 07:06:03;;;;;;;0.00;0.00;;;;;;;20.26;100.00;101144.38;5115641;28;20016;-45
2023/09/11 07:08:29;;;;;;;0.00;0.00;;;;;;;20.35;100.00;101143.44;5114888;28;20043;-47
2023/09/11 07:10:55;;;;;;;0.00;0.00;;;;;;;20.43;100.00;101146.88;5115687;28;20020;-49
2023/09/11 07:13:21;;;;;;;0.10;0.10;;;;;;;20.49;100.00;101135.47;5114851;28;20031;-48
2023/09/11 07:16:00;;;;;;;0.00;0.00;;;;;;;20.61;100.00;101130.16;5115190;28;20024;-46
2023/09/11 07:18:26;;;;;;;0.00;0.00;;;;;;;20.69;100.00;101136.19;5115407;28;20105;-45
2023/09/11 07:20:52;;;;;;;0.00;0.00;;;;;;;20.77;100.00;101135.31;5115432;28;20024;-49
2023/09/11 07:23:23;;;;;;;0.10;0.10;;;;;;;20.85;100.00;101133.50;5114508;28;20023;-48
2023/09/11 07:25:51;;;;;;;0.00;0.00;;;;;;;20.91;100.00;101133.44;5115502;28;20057;-50
2023/09/11 07:28:16;;;;;;;0.03;0.03;;;;;;;20.96;100.00;101126.41;5115066;28;20031;-50
2023/09/11 07:30:43;;;;;;;0.00;0.00;;;;;;;21.01;100.00;101135.09;5114751;27;20404;-50
2023/09/11 07:33:09;;;;;;;0.00;0.00;;;;;;;21.13;100.00;101130.63;5114233;28;20031;-50
2023/09/11 07:35:34;;;;;;;0.00;0.00;;;;;;;21.20;100.00;101135.78;5114327;28;20031;-49
2023/09/11 07:37:59;;;;;;;0.00;0.00;;;;;;;21.26;100.00;101137.47;5115084;28;20027;-50
2023/09/11 07:40:25;;;;;;;0.00;0.00;;;;;;;21.35;100.00;101134.75;5114570;28;20028;-48
2023/09/11 07:42:52;;;;;;;0.00;0.00;;;;;;;21.41;100.00;101138.19;5114635;28;20022;-48
2023/09/11 07:45:18;;;;;;;0.00;0.00;;;;;;;21.49;100.00;101141.63;5114788;27;20030;-51
2023/09/11 07:47:43;;;;;;;0.00;0.00;;;;;;;21.55;100.00;101146.84;5114958;28;20023;-49
2023/09/11 07:50:09;;;;;;;0.00;0.00;;;;;;;21.64;100.00;101145.84;5114417;28;20474;-45
2023/09/11 07:52:35;;;;;;;0.00;0.00;;;;;;;21.74;100.00;101152.72;5114523;28;20450;-50
2023/09/11 07:55:01;;;;;;;0.03;0.03;;;;;;;21.84;100.00;101163.97;5114826;28;20024;-50
2023/09/11 07:57:27;;;;;;;0.00;0.00;;;;;;;21.93;100.00;101161.22;5113758;28;20079;-45
2023/09/11 07:59:52;;;;;;;0.00;0.00;;;;;;;22.02;100.00;101161.09;5114883;28;20024;-49
2023/09/11 08:02:18;;;;;;;0.00;0.00;;;;;;;22.03;100.00;101160.22;5114238;28;20027;-47
2023/09/11 08:04:43;;;;;;;0.00;0.00;;;;;;;22.07;100.00;101166.31;5113946;28;20082;-44
2023/09/11 08:07:08;;;;;;;0.00;0.00;;;;;;;22.18;100.00;101166.16;5114470;28;20030;-49
2023/09/11 08:09:34;;;;;;;0.00;0.00;;;;;;;22.28;100.00;101164.28;5114332;28;20166;-47
2023/09/11 08:12:00;;;;;;;0.00;0.00;;;;;;;22.35;100.00;101172.03;5114125;28;20077;-50
2023/09/11 08:14:25;;;;;;;0.00;0.00;;;;;;;22.51;100.00;101171.84;5114128;28;20069;-49
2023/09/11 08:16:50;;;;;;;0.08;0.00;;;;;;;22.59;100.00;101179.63;5114128;28;20450;-45
2023/09/11 08:19:16;;;;;;;0.00;0.00;;;;;;;22.63;100.00;101176.06;5113403;27;20110;-45
2023/09/11 08:21:41;;;;;;;0.05;0.00;;;;;;;22.65;100.00;101171.66;5114333;28;20091;-50
2023/09/11 08:24:07;;;;;;;0.00;0.00;;;;;;;22.77;100.00;101184.56;5114356;28;20038;-51
2023/09/11 08:26:33;;;;;;;0.00;0.00;;;;;;;22.84;100.00;101185.38;5113630;27;20024;-49
2023/09/11 08:28:59;;;;;;;0.00;0.00;;;;;;;23.00;100.00;101184.19;5114206;28;20478;-45
2023/09/11 08:31:24;;;;;;;0.00;0.00;;;;;;;23.17;100.00;101177.81;5113605;27;20299;-49
2023/09/11 08:33:54;;;;;;;0.00;0.00;;;;;;;23.19;100.00;101173.41;5113446;28;20077;-45
2023/09/11 08:36:20;;;;;;;0.00;0.00;;;;;;;23.24;100.00;101166.31;5113540;28;20072;-50
2023/09/11 08:38:47;;;;;;;0.00;0.00;;;;;;;23.27;99.00;101165.41;5113314;28;20027;-49
2023/09/11 08:41:14;;;;;;;0.00;0.00;;;;;;;23.40;99.88;101172.16;5113917;28;20024;-48
2023/09/11 08:43:39;;;;;;;0.00;0.00;;;;;;;23.51;100.00;101172.81;5113813;28;20028;-50
2023/09/11 08:46:07;;;;;;;0.03;0.03;;;;;;;23.55;98.31;101173.63;5113443;28;20046;-50
2023/09/11 08:48:32;;;;;;;;;;;;;;;23.66;100.00;101176.03;5113876;28;20489;-50
2023/09/11 08:51:04;;;;;;;0.00;0.00;;;;;;;23.62;100.00;101175.22;5113573;28;19912;-47
2023/09/11 08:53:32;;;;;;;0.00;0.00;;;;;;;23.79;99.59;101172.25;5112902;28;20073;-50
2023/09/11 08:55:58;;;;;;;0.00;0.00;;;;;;;23.96;98.33;101177.22;5113598;28;20103;-49
2023/09/11 08:58:24;;;;;;;0.00;0.00;;;;;;;24.06;96.37;101183.16;5113113;27;20462;-50
2023/09/11 09:00:49;;;;;;;0.00;0.00;;;;;;;24.17;96.96;101178.53;5112893;28;20028;-51
2023/09/11 09:03:16;;;;;;;0.00;0.00;;;;;;;24.31;94.86;101185.25;5113197;28;20470;-45
2023/09/11 09:05:41;;;;;;;0.00;0.00;;;;;;;24.48;94.69;101188.38;5113398;28;20061;-50
2023/09/11 09:08:08;;;;;;;0.00;0.00;;;;;;;24.50;94.27;101180.41;5112936;28;20157;-50
2023/09/11 09:10:33;;;;;;;0.00;0.00;;;;;;;24.80;93.21;101183.25;5113391;28;20023;-51
2023/09/11 09:13:00;;;;;;;0.00;0.00;;;;;;;25.11;93.73;101179.84;5113377;28;20035;-49
2023/09/11 09:15:28;;;;;;;0.00;0.00;;;;;;;25.05;88.57;101178.25;5112735;28;20024;-51
2023/09/11 09:17:53;;;;;;;0.00;0.00;;;;;;;25.21;86.78;101177.84;5113352;28;20026;-50
2023/09/11 09:20:20;;;;;;;0.00;0.00;;;;;;;25.37;86.69;101179.22;5113069;28;20028;-49
2023/09/11 09:22:56;;;;;;;0.00;0.00;;;;;;;25.75;88.28;101184.31;5113033;28;20062;-47
2023/09/11 09:25:22;;;;;;;0.00;0.00;;;;;;;25.94;86.22;101180.22;5112859;28;20028;-49
2023/09/11 09:27:47;;;;;;;0.00;0.00;;;;;;;25.96;78.73;101185.47;5113277;28;20370;-50
2023/09/11 09:30:22;;;;;;;0.00;0.00;;;;;;;26.45;80.19;101176.06;5112458;28;20034;-51
2023/09/11 09:32:49;;;;;;;0.00;0.00;;;;;;;26.45;81.33;101183.13;5113232;28;20028;-50
2023/09/11 09:35:16;;;;;;;;;;;;;;;26.64;82.75;101188.72;5112955;28;20024;-51
2023/09/11 09:37:52;;;;;;;0.00;0.00;;;;;;;26.99;78.13;101196.44;5113305;28;19912;-45
2023/09/11 09:40:47;;;;;;;0.00;0.00;;;;;;;27.21;79.02;101194.75;5112759;28;20549;-51
2023/09/11 09:43:17;;;;;;;0.00;0.00;;;;;;;27.50;73.55;101187.63;5095153;28;20043;-45
2023/09/11 09:45:43;;;;;;;0.00;0.00;;;;;;;27.76;70.95;101189.31;5113467;28;20064;-51
2023/09/11 09:48:19;;;;;;;0.00;0.00;;;;;;;28.06;71.44;101185.59;5113002;28;20122;-51
2023/09/11 09:50:53;;;;;;;0.00;0.00;;;;;;;28.38;67.58;101191.41;5112595;28;20015;-50
2023/09/11 09:53:33;;;;;;;0.00;0.00;;;;;;;28.83;69.37;101198.47;5112628;28;20382;-45
2023/09/11 09:56:04;;;;;;;0.00;0.00;;;;;;;29.38;62.15;101202.38;5115450;28;20691;-51
2023/09/11 09:58:32;;;;;;;0.00;0.00;;;;;;;29.86;59.77;101190.47;5117016;28;20085;-46
2023/09/11 10:01:12;;;;;;;0.00;0.00;;;;;;;30.08;59.44;101183.31;5116942;28;20047;-51
2023/09/11 10:03:38;;;;;;;0.00;0.00;;;;;;;29.98;58.16;101185.53;5116540;28;20088;-50
2023/09/11 10:06:06;;;;;;;0.00;0.00;;;;;;;30.03;55.99;101184.41;5116994;28;20027;-46
2023/09/11 10:08:31;;;;;;;0.00;0.00;;;;;;;29.89;57.45;101190.34;5116548;28;20035;-46
2023/09/11 10:10:57;;;;;;;0.00;0.00;;;;;;;30.33;56.53;101186.53;5116454;28;20014;-51
2023/09/11 10:13:24;;;;;;;0.00;0.00;;;;;;;30.51;54.42;101191.91;5116517;28;20034;-51
2023/09/11 10:15:51;;;;;;;0.00;0.00;;;;;;;31.08;51.25;101189.09;5116587;28;20034;-51
2023/09/11 10:18:17;;;;;;;0.00;0.00;;;;;;;31.70;47.87;101183.22;5115979;28;20070;-50
2023/09/11 10:20:42;;;;;;;0.00;0.00;;;;;;;31.71;48.68;101189.41;5116623;28;20525;-51
2023/09/11 10:23:08;;;;;;;0.00;0.00;;;;;;;31.46;49.14;101183.56;5116497;28;20028;-46
2023/09/11 10:25:38;;;;;;;0.00;0.00;;;;;;;31.45;48.76;101184.53;5115925;28;20046;-46
2023/09/11 10:28:07;;;;;;;0.00;0.00;;;;;;;31.51;48.80;101192.16;5116508;28;20636;-51
2023/09/11 10:31:04;;;;;;;0.00;0.00;;;;;;;31.56;51.41;101185.75;5116027;28;20031;-50
2023/09/11 10:33:31;;;;;;;0.00;0.00;;;;;;;31.94;48.39;101186.31;5073606;28;20421;-50
2023/09/11 10:36:03;;;;;;;0.00;0.00;;;;;;;31.77;47.69;101175.75;5116258;28;20069;-51
2023/09/11 10:38:32;;;;;;;0.00;0.00;;;;;;;31.85;47.38;101171.72;5115655;28;20024;-51
2023/09/11 10:41:00;;;;;;;0.00;0.00;;;;;;;32.11;48.71;101181.88;5116245;28;20019;-51
2023/09/11 10:43:26;;;;;;;0.00;0.00;;;;;;;32.38;45.64;101174.13;5115709;27;20032;-51
2023/09/11 10:45:52;;;;;;;0.00;0.00;;;;;;;32.10;45.13;101173.03;5115940;28;20043;-51
2023/09/11 10:48:31;;;;;;;0.00;0.00;;;;;;;31.73;48.00;101177.72;5116049;28;20266;-50
2023/09/11 10:50:57;;;;;;;0.00;0.00;;;;;;;31.43;47.96;101181.06;5115859;28;20016;-46
2023/09/11 10:53:28;;;;;;;;;;;;;;;32.05;50.06;101180.41;5114538;28;20071;-50
2023/09/11 10:55:55;;;;;;;0.00;0.00;;;;;;;31.67;47.67;101167.38;5115827;28;19915;-51
2023/09/11 10:58:21;;;;;;;;;;;;;;;32.44;49.11;101170.28;5115849;27;20449;-51
2023/09/11 11:00:51;;;;;;;0.00;0.00;;;;;;;32.57;48.36;101173.09;5115521;27;19912;-51
2023/09/11 11:03:17;;;;;;;0.00;0.00;;;;;;;33.01;45.52;101174.09;5115691;28;20073;-49
2023/09/11 11:05:43;;;;;;;0.00;0.00;;;;;;;33.59;42.97;101172.38;5115357;28;20469;-49
2023/09/11 11:08:08;;;;;;;0.00;0.00;;;;;;;32.92;42.16;101162.16;5114270;28;20072;-51
2023/09/11 11:10:34;;;;;;;0.00;0.00;;;;;;;32.40;42.87;101158.91;5115311;28;20024;-48
2023/09/11 11:13:07;;;;;;;0.00;0.00;;;;;;;33.00;44.35;101159.88;5115580;28;20034;-51
2023/09/11 11:15:33;;;;;;;0.00;0.00;;;;;;;32.65;43.86;101163.69;5114821;28;20476;-51
2023/09/11 11:18:25;;;;;;;0.00;0.00;;;;;;;32.70;43.21;101167.91;5115497;28;20077;-52